Time;durP1;ratioP1;P1;durP2;ratioP2;P2;SDS_P1;SDS_P2;PMS_P1;PMS_P2;Temp;Humidity;BMP_temperature;BMP_pressure;BME280_temperature;BME280_humidity;BME280_pressure;Samples;Min_cycle;Max_cycle;Signal;HPM_P1;HPM_P2
2023/07/12 00:00:59;;;;;;;5.10;1.65;;;;;;;20.13;100.00;100761.56;4929995;29;20055;-70
2023/07/12 00:03:25;;;;;;;;;;;;;;;20.17;100.00;100755.81;4925624;29;20174;-70
2023/07/12 00:05:53;;;;;;;4.38;1.60;;;;;;;20.10;100.00;100748.66;4929278;29;19953;-70
2023/07/12 00:08:21;;;;;;;3.75;1.83;;;;;;;20.09;100.00;100746.19;4922737;29;20051;-70
2023/07/12 00:10:49;;;;;;;4.45;1.80;;;;;;;20.03;100.00;100739.06;4922421;29;20055;-70
2023/07/12 00:13:17;;;;;;;3.65;1.65;;;;;;;20.00;100.00;100731.50;4930317;29;20078;-71
2023/07/12 00:15:45;;;;;;;7.22;2.10;;;;;;;20.04;100.00;100733.53;4924857;28;20094;-70
2023/07/12 00:18:20;;;;;;;2.38;1.65;;;;;;;20.01;100.00;100736.59;4930510;29;20057;-70
2023/07/12 00:20:49;;;;;;;4.40;1.63;;;;;;;19.92;100.00;100743.22;4900131;29;20430;-71
2023/07/12 00:23:17;;;;;;;7.78;2.17;;;;;;;19.90;100.00;100738.09;4927435;29;20048;-70
2023/07/12 00:25:45;;;;;;;5.35;1.90;;;;;;;19.82;100.00;100740.19;4925223;28;20485;-71
2023/07/12 00:28:24;;;;;;;7.15;1.80;;;;;;;19.78;100.00;100752.25;4914921;29;20079;-70
2023/07/12 00:30:54;;;;;;;4.07;2.20;;;;;;;19.79;100.00;100754.69;4929977;29;20511;-70
2023/07/12 00:33:23;;;;;;;4.93;1.80;;;;;;;19.73;100.00;100745.69;4918126;29;20070;-70
2023/07/12 00:35:49;;;;;;;;;;;;;;;19.71;100.00;100753.06;4925713;29;20134;-71
2023/07/12 00:38:23;;;;;;;5.63;2.10;;;;;;;19.59;100.00;100752.06;4924119;29;20391;-70
2023/07/12 00:40:53;;;;;;;4.88;1.75;;;;;;;19.54;100.00;100762.50;4926677;29;20116;-71
2023/07/12 00:43:35;;;;;;;5.95;1.90;;;;;;;19.51;100.00;100768.25;4924478;28;20820;-70
2023/07/12 00:46:11;;;;;;;4.10;2.30;;;;;;;19.44;100.00;100768.22;4925809;29;20457;-69
2023/07/12 00:48:37;;;;;;;8.30;2.15;;;;;;;19.42;100.00;100780.91;4919368;29;20122;-71
2023/07/12 00:51:25;;;;;;;4.25;2.25;;;;;;;19.31;100.00;100765.59;4908222;29;20075;-70
2023/07/12 00:53:51;;;;;;;5.78;2.08;;;;;;;19.32;100.00;100777.88;4921391;29;20044;-70
2023/07/12 00:56:18;;;;;;;9.38;2.45;;;;;;;19.33;100.00;100787.50;4922965;29;20051;-70
2023/07/12 00:58:50;;;;;;;6.65;2.78;;;;;;;19.21;100.00;100786.44;4929711;29;20063;-71
2023/07/12 01:01:17;;;;;;;5.82;2.40;;;;;;;19.03;100.00;100776.41;4919257;28;20059;-70
2023/07/12 01:03:45;;;;;;;4.90;2.33;;;;;;;19.03;100.00;100779.88;4928275;29;20056;-70
2023/07/12 01:06:14;;;;;;;;;;;;;;;18.93;100.00;100779.47;4924299;29;20138;-69
2023/07/12 01:08:41;;;;;;;4.93;2.08;;;;;;;18.89;100.00;100789.69;4906950;29;19934;-69
2023/07/12 01:11:14;;;;;;;6.97;2.47;;;;;;;18.80;100.00;100809.53;4930491;29;20106;-69
2023/07/12 01:13:43;;;;;;;7.80;2.55;;;;;;;18.67;100.00;100810.25;4926288;29;20134;-70
2023/07/12 01:16:12;;;;;;;7.55;2.30;;;;;;;18.62;100.00;100810.06;4925996;29;20598;-70
2023/07/12 01:18:39;;;;;;;8.80;2.30;;;;;;;18.45;100.00;100814.88;4920769;28;20044;-70
2023/07/12 01:21:15;;;;;;;7.82;2.45;;;;;;;18.46;100.00;100824.47;4930805;29;20047;-70
2023/07/12 01:23:43;;;;;;;5.70;2.40;;;;;;;18.44;100.00;100823.84;4906616;29;20088;-70
2023/07/12 01:26:16;;;;;;;;;;;;;;;18.37;100.00;100826.50;4930679;29;20087;-70
2023/07/12 01:28:43;;;;;;;5.40;2.20;;;;;;;18.33;100.00;100830.56;4920651;28;19927;-69
2023/07/12 01:31:09;;;;;;;8.88;2.55;;;;;;;18.20;100.00;100846.44;4925774;29;20583;-69
2023/07/12 01:33:36;;;;;;;7.13;2.90;;;;;;;18.12;100.00;100841.28;4933097;29;20058;-70
2023/07/12 01:36:03;;;;;;;6.78;2.58;;;;;;;18.12;100.00;100839.44;4926273;29;20056;-69
2023/07/12 01:38:29;;;;;;;9.18;2.90;;;;;;;18.00;100.00;100854.28;4933484;29;20047;-69
2023/07/12 01:40:56;;;;;;;6.25;2.58;;;;;;;18.05;100.00;100840.41;4928248;29;20552;-69
2023/07/12 01:43:22;;;;;;;11.02;3.20;;;;;;;18.08;100.00;100816.97;4929051;29;20062;-69
2023/07/12 01:45:49;;;;;;;9.63;2.58;;;;;;;18.13;100.00;100814.53;4923505;29;20545;-69
2023/07/12 01:48:15;;;;;;;8.80;2.67;;;;;;;18.08;100.00;100879.84;4933064;29;20138;-69
2023/07/12 01:50:42;;;;;;;11.73;2.13;;;;;;;18.07;100.00;100865.78;4932635;29;20048;-69
2023/07/12 01:53:09;;;;;;;9.27;2.08;;;;;;;18.15;100.00;100812.50;4928553;29;20528;-70
2023/07/12 01:55:36;;;;;;;9.63;2.25;;;;;;;18.25;100.00;100812.16;4933860;29;20052;-69
2023/07/12 01:58:02;;;;;;;7.72;2.33;;;;;;;18.27;100.00;100817.25;4923133;29;20139;-69
2023/07/12 02:00:29;;;;;;;9.25;2.40;;;;;;;18.30;100.00;100798.28;4928696;29;20055;-70
2023/07/12 02:02:55;;;;;;;11.57;2.50;;;;;;;18.31;100.00;100789.31;4927290;29;20052;-70
2023/07/12 02:05:22;;;;;;;9.45;2.30;;;;;;;18.28;100.00;100766.59;4933808;29;20106;-70
2023/07/12 02:07:49;;;;;;;11.23;2.50;;;;;;;18.35;100.00;100769.31;4917573;29;20187;-70
2023/07/12 02:10:17;;;;;;;6.45;2.20;;;;;;;18.23;100.00;100782.34;4934180;29;20080;-71
2023/07/12 02:12:44;;;;;;;8.48;2.22;;;;;;;18.22;100.00;100779.88;4935694;29;20044;-70
2023/07/12 02:15:12;;;;;;;7.97;2.45;;;;;;;18.25;100.00;100787.41;4928729;29;20052;-71
2023/07/12 02:17:39;;;;;;;;;;;;;;;18.22;100.00;100767.41;4952822;29;20408;-72
2023/07/12 02:20:08;;;;;;;8.20;2.15;;;;;;;18.22;100.00;100753.31;4941373;29;19986;-71
2023/07/12 02:22:37;;;;;;;7.55;2.40;;;;;;;18.07;100.00;100751.63;4931753;29;20107;-71
2023/07/12 02:25:05;;;;;;;7.47;2.28;;;;;;;17.95;100.00;100767.28;4928589;29;20163;-71
2023/07/12 02:27:31;;;;;;;8.60;3.03;;;;;;;17.90;100.00;100779.50;4900302;29;20106;-72
2023/07/12 02:29:58;;;;;;;10.63;2.80;;;;;;;17.85;100.00;100761.50;4932207;29;20523;-73
2023/07/12 02:32:26;;;;;;;9.68;3.45;;;;;;;17.81;100.00;100756.75;4911156;29;20047;-73
2023/07/12 02:34:53;;;;;;;11.02;2.70;;;;;;;17.82;100.00;100742.47;4932530;29;20485;-73
2023/07/12 02:37:20;;;;;;;8.07;2.42;;;;;;;17.82;100.00;100766.34;4928061;29;20079;-73
2023/07/12 02:39:46;;;;;;;7.18;2.58;;;;;;;17.75;100.00;100812.22;4928660;29;20095;-73
2023/07/12 02:42:13;;;;;;;8.20;2.67;;;;;;;17.74;100.00;100831.03;4927030;29;20526;-72
2023/07/12 02:44:40;;;;;;;8.00;2.55;;;;;;;17.69;100.00;100823.63;4924709;29;20564;-72
2023/07/12 02:47:08;;;;;;;7.15;2.63;;;;;;;17.59;100.00;100834.56;4932023;29;20150;-72
2023/07/12 02:49:35;;;;;;;6.82;2.15;;;;;;;17.49;100.00;100817.34;4925326;29;20044;-72
2023/07/12 02:52:03;;;;;;;7.72;2.30;;;;;;;17.48;100.00;100826.31;4933073;29;20095;-72
2023/07/12 02:54:33;;;;;;;6.32;1.85;;;;;;;17.52;100.00;100832.88;4936699;29;20928;-72
2023/07/12 02:57:00;;;;;;;7.07;2.13;;;;;;;17.47;100.00;100822.84;4946078;29;20425;-72
2023/07/12 02:59:27;;;;;;;7.37;2.10;;;;;;;17.50;100.00;100805.72;4946601;29;20056;-72
2023/07/12 03:01:54;;;;;;;7.82;1.90;;;;;;;17.54;100.00;100781.31;4910663;29;20056;-71
2023/07/12 03:04:22;;;;;;;6.72;1.90;;;;;;;17.64;100.00;100753.59;4915754;29;20048;-72
2023/07/12 03:06:49;;;;;;;6.60;2.45;;;;;;;17.73;100.00;100776.31;4922944;29;20083;-72
2023/07/12 03:09:15;;;;;;;6.82;2.20;;;;;;;17.75;100.00;100783.06;4926907;29;20739;-71
2023/07/12 03:11:46;;;;;;;7.22;2.17;;;;;;;17.70;100.00;100784.63;4924909;28;20472;-72
2023/07/12 03:14:15;;;;;;;9.18;2.63;;;;;;;17.72;100.00;100779.97;4931416;29;20101;-71
2023/07/12 03:16:41;;;;;;;9.07;2.53;;;;;;;17.74;100.00;100770.00;4929291;29;20063;-72
2023/07/12 03:19:08;;;;;;;5.57;1.90;;;;;;;17.64;100.00;100785.41;4926861;29;20078;-71
2023/07/12 03:21:35;;;;;;;7.95;2.35;;;;;;;17.56;100.00;100781.09;4926338;29;20058;-70
2023/07/12 03:24:01;;;;;;;6.50;2.05;;;;;;;17.40;100.00;100792.78;4919263;29;20051;-70
2023/07/12 03:26:28;;;;;;;6.43;1.98;;;;;;;17.35;100.00;100800.53;4930139;29;20055;-72
2023/07/12 03:28:55;;;;;;;5.57;2.00;;;;;;;17.28;100.00;100810.25;4924748;29;20520;-70
2023/07/12 03:31:22;;;;;;;6.00;1.75;;;;;;;17.14;100.00;100810.13;4930811;29;20086;-69
2023/07/12 03:33:49;;;;;;;5.78;1.55;;;;;;;17.05;100.00;100813.09;4918578;29;20416;-69
2023/07/12 03:36:15;;;;;;;5.15;1.80;;;;;;;17.07;100.00;100816.38;4920827;29;20047;-70
2023/07/12 03:38:42;;;;;;;5.90;2.08;;;;;;;17.03;100.00;100828.34;4922273;29;20477;-70
2023/07/12 03:41:10;;;;;;;4.72;1.75;;;;;;;17.06;100.00;100831.44;4923464;29;20538;-70
2023/07/12 03:43:37;;;;;;;9.15;2.40;;;;;;;17.00;100.00;100840.97;4912411;29;20055;-70
2023/07/12 03:46:04;;;;;;;7.78;2.08;;;;;;;17.02;100.00;100826.72;4923357;28;20766;-69
2023/07/12 03:48:31;;;;;;;4.85;1.80;;;;;;;16.95;100.00;100843.34;4928884;29;20051;-71
2023/07/12 03:50:57;;;;;;;4.60;2.08;;;;;;;16.88;100.00;100847.78;4920328;29;20043;-70
2023/07/12 03:53:27;;;;;;;5.53;2.05;;;;;;;16.89;100.00;100846.75;4921037;29;20115;-70
2023/07/12 03:55:58;;;;;;;9.13;2.25;;;;;;;16.92;100.00;100857.00;4929709;29;20058;-70
2023/07/12 03:58:27;;;;;;;9.85;2.85;;;;;;;16.87;100.00;100863.84;4924528;29;20083;-69
2023/07/12 04:00:54;;;;;;;7.82;3.17;;;;;;;16.84;100.00;100870.34;4929667;29;20051;-70
2023/07/12 04:03:21;;;;;;;9.57;3.30;;;;;;;16.78;100.00;100863.94;4920139;28;20044;-69
2023/07/12 04:05:50;;;;;;;7.40;3.65;;;;;;;16.86;100.00;100871.00;4923375;29;20048;-69
2023/07/12 04:08:18;;;;;;;9.40;3.90;;;;;;;16.72;100.00;100859.38;4923033;29;20644;-71
2023/07/12 04:10:44;;;;;;;8.17;3.80;;;;;;;16.79;100.00;100867.41;4928871;29;20083;-70
2023/07/12 04:13:11;;;;;;;8.52;4.13;;;;;;;16.88;100.00;100860.22;4929527;29;20055;-69
2023/07/12 04:15:37;;;;;;;8.90;4.80;;;;;;;16.77;100.00;100862.28;4923132;28;20079;-69
2023/07/12 04:18:04;;;;;;;11.90;5.47;;;;;;;16.68;100.00;100866.06;4911447;29;20059;-69
2023/07/12 04:20:30;;;;;;;11.02;5.70;;;;;;;16.74;100.00;100859.19;4919283;29;20103;-69
2023/07/12 04:22:57;;;;;;;7.80;5.47;;;;;;;16.67;100.00;100860.94;4929576;29;20065;-70
2023/07/12 04:25:23;;;;;;;10.23;6.30;;;;;;;16.60;100.00;100869.63;4926699;28;20105;-71
2023/07/12 04:27:50;;;;;;;12.18;6.95;;;;;;;16.57;100.00;100858.59;4926368;29;20043;-70
2023/07/12 04:30:17;;;;;;;10.55;7.43;;;;;;;16.54;100.00;100866.88;4929935;29;20421;-71
2023/07/12 04:32:47;;;;;;;11.52;7.18;;;;;;;16.50;100.00;100877.03;4916954;29;20107;-69
2023/07/12 04:35:14;;;;;;;13.40;8.32;;;;;;;16.59;100.00;100872.47;4929334;29;20068;-71
2023/07/12 04:37:49;;;;;;;17.67;8.80;;;;;;;16.60;100.00;100877.59;4906034;29;20112;-70
2023/07/12 04:40:16;;;;;;;14.20;7.53;;;;;;;16.70;100.00;100879.09;4929809;29;20054;-69
2023/07/12 04:42:44;;;;;;;17.40;9.85;;;;;;;16.74;100.00;100883.88;4907245;29;20048;-69
2023/07/12 04:45:13;;;;;;;11.82;8.68;;;;;;;16.69;100.00;100877.47;4925423;29;20044;-69
2023/07/12 04:47:39;;;;;;;;;;;;;;;16.64;100.00;100883.34;4927004;29;20456;-70
2023/07/12 04:50:08;;;;;;;16.33;9.43;;;;;;;16.66;100.00;100870.72;4923673;29;19929;-69
2023/07/12 04:52:35;;;;;;;16.13;9.27;;;;;;;16.68;100.00;100879.31;4928175;29;20500;-69
2023/07/12 04:55:03;;;;;;;12.48;9.35;;;;;;;16.69;100.00;100880.13;4922802;29;20047;-70
2023/07/12 04:57:31;;;;;;;17.50;10.93;;;;;;;16.69;100.00;100890.72;4923693;29;20694;-69
2023/07/12 04:59:57;;;;;;;17.48;10.38;;;;;;;16.65;100.00;100897.38;4915248;28;20068;-69
2023/07/12 05:02:24;;;;;;;16.30;11.02;;;;;;;16.68;100.00;100894.34;4928926;29;20138;-69
2023/07/12 05:04:51;;;;;;;16.65;11.35;;;;;;;16.70;100.00;100889.69;4928245;29;20497;-69
2023/07/12 05:07:17;;;;;;;16.17;10.93;;;;;;;16.69;100.00;100891.53;4925685;29;20496;-69
2023/07/12 05:09:44;;;;;;;19.33;11.10;;;;;;;16.65;100.00;100892.09;4932159;29;20138;-69
2023/07/12 05:12:11;;;;;;;18.03;11.37;;;;;;;16.68;100.00;100897.00;4911630;29;20099;-69
2023/07/12 05:14:38;;;;;;;17.88;11.15;;;;;;;16.68;100.00;100892.56;4930703;29;20062;-70
2023/07/12 05:17:05;;;;;;;18.98;11.75;;;;;;;16.74;100.00;100894.47;4913699;29;20202;-68
2023/07/12 05:19:32;;;;;;;17.15;11.32;;;;;;;16.77;100.00;100898.56;4932194;29;20485;-69
2023/07/12 05:21:58;;;;;;;15.38;11.27;;;;;;;16.69;100.00;100891.53;4932691;29;20051;-69
2023/07/12 05:24:25;;;;;;;17.08;11.50;;;;;;;16.70;100.00;100898.47;4927253;29;20055;-68
2023/07/12 05:26:56;;;;;;;17.70;12.15;;;;;;;16.66;100.00;100899.00;4929275;29;20083;-68
2023/07/12 05:29:22;;;;;;;16.65;11.55;;;;;;;16.67;100.00;100909.44;4910080;29;20066;-69
2023/07/12 05:31:49;;;;;;;19.38;11.88;;;;;;;16.71;100.00;100913.34;4931596;29;20216;-69
2023/07/12 05:34:16;;;;;;;18.40;12.77;;;;;;;16.73;100.00;100919.28;4925536;28;20055;-68
2023/07/12 05:36:42;;;;;;;18.10;9.85;;;;;;;16.76;100.00;100910.97;4927308;29;20224;-69
2023/07/12 05:39:09;;;;;;;15.40;10.32;;;;;;;16.88;100.00;100921.16;4928980;29;20571;-70
2023/07/12 05:41:35;;;;;;;14.95;9.63;;;;;;;16.85;100.00;100917.00;4912212;29;20047;-68
2023/07/12 05:44:02;;;;;;;16.85;9.57;;;;;;;16.80;100.00;100922.03;4914096;29;20055;-68
2023/07/12 05:46:28;;;;;;;16.15;9.18;;;;;;;16.79;100.00;100921.19;4907118;29;20771;-67
2023/07/12 05:48:55;;;;;;;17.63;8.55;;;;;;;16.88;100.00;100932.56;4927108;29;20051;-68
2023/07/12 05:51:22;;;;;;;11.75;7.60;;;;;;;16.91;100.00;100928.69;4921501;29;20531;-69
2023/07/12 05:53:48;;;;;;;13.60;7.78;;;;;;;16.94;100.00;100926.50;4930717;29;20063;-68
2023/07/12 05:56:15;;;;;;;15.40;8.00;;;;;;;16.99;100.00;100921.50;4931296;29;20083;-69
2023/07/12 05:58:41;;;;;;;16.85;8.05;;;;;;;17.01;100.00;100923.94;4926073;28;20048;-68
2023/07/12 06:01:08;;;;;;;13.90;6.82;;;;;;;17.06;100.00;100936.63;4914936;29;20056;-69
2023/07/12 06:03:35;;;;;;;10.75;6.25;;;;;;;17.09;100.00;100944.19;4905404;28;20051;-68
2023/07/12 06:06:06;;;;;;;13.45;6.07;;;;;;;17.09;100.00;100947.69;4926841;29;20058;-69
2023/07/12 06:08:33;;;;;;;16.15;6.45;;;;;;;17.16;100.00;100951.22;4926167;29;20528;-68
2023/07/12 06:11:00;;;;;;;14.80;6.53;;;;;;;17.28;100.00;100940.94;4932810;29;20052;-68
2023/07/12 06:13:26;;;;;;;13.38;6.10;;;;;;;17.24;100.00;100938.88;4930959;29;20102;-69
2023/07/12 06:15:52;;;;;;;11.95;5.50;;;;;;;17.21;100.00;100950.69;4926088;28;20167;-68
2023/07/12 06:18:19;;;;;;;15.35;5.70;;;;;;;17.13;100.00;100942.81;4925770;29;20079;-68
2023/07/12 06:20:46;;;;;;;13.90;6.05;;;;;;;17.22;100.00;100947.00;4921722;29;20707;-69
2023/07/12 06:23:13;;;;;;;12.88;5.65;;;;;;;17.20;100.00;100954.31;4932136;29;20114;-67
2023/07/12 06:25:40;;;;;;;15.88;6.28;;;;;;;17.27;100.00;100944.63;4925483;29;20047;-69
2023/07/12 06:28:06;;;;;;;13.98;5.47;;;;;;;17.37;100.00;100945.13;4931490;29;20568;-68
2023/07/12 06:30:33;;;;;;;10.00;5.28;;;;;;;17.39;100.00;100945.78;4928772;29;20059;-70
2023/07/12 06:32:59;;;;;;;12.27;5.80;;;;;;;17.37;100.00;100944.31;4919798;29;20059;-68
2023/07/12 06:35:26;;;;;;;11.88;5.63;;;;;;;17.35;100.00;100949.81;4930116;29;20062;-67
2023/07/12 06:37:52;;;;;;;11.05;5.20;;;;;;;17.38;100.00;100967.97;4925491;29;20048;-68
2023/07/12 06:40:19;;;;;;;13.45;5.88;;;;;;;17.38;100.00;100981.22;4932138;29;20087;-68
2023/07/12 06:42:45;;;;;;;12.45;5.32;;;;;;;17.40;100.00;100962.50;4924200;29;20961;-68
2023/07/12 06:45:11;;;;;;;14.60;5.85;;;;;;;17.48;100.00;100966.84;4927550;29;20102;-68
2023/07/12 06:47:38;;;;;;;15.63;5.88;;;;;;;17.46;100.00;100964.38;4926714;29;20055;-69
2023/07/12 06:50:05;;;;;;;13.02;5.00;;;;;;;17.59;100.00;100979.63;4925002;29;20059;-67
2023/07/12 06:52:32;;;;;;;12.18;5.55;;;;;;;17.60;100.00;100983.91;4913476;29;20051;-68
2023/07/12 06:54:58;;;;;;;14.63;4.88;;;;;;;17.54;100.00;100988.16;4927911;29;20763;-69
2023/07/12 06:57:25;;;;;;;11.05;5.47;;;;;;;17.49;100.00;100992.38;4931728;29;20115;-68
2023/07/12 06:59:52;;;;;;;14.13;5.25;;;;;;;17.47;100.00;100991.75;4904596;29;20489;-67
2023/07/12 07:02:18;;;;;;;14.90;5.72;;;;;;;17.47;100.00;100997.06;4926627;29;20043;-68
2023/07/12 07:04:45;;;;;;;14.27;6.88;;;;;;;17.46;100.00;101000.69;4930639;29;20060;-68
2023/07/12 07:07:11;;;;;;;12.63;6.10;;;;;;;17.49;100.00;100990.53;4929200;29;20047;-68
2023/07/12 07:09:38;;;;;;;14.70;5.80;;;;;;;17.54;100.00;100977.56;4914938;29;20524;-68
2023/07/12 07:12:06;;;;;;;14.70;6.60;;;;;;;17.67;100.00;100994.59;4926324;29;20075;-69
2023/07/12 07:14:33;;;;;;;13.30;5.55;;;;;;;17.72;100.00;100992.19;4924137;29;20047;-68
2023/07/12 07:16:59;;;;;;;11.40;5.85;;;;;;;17.76;100.00;100986.34;4923078;28;20577;-67
2023/07/12 07:19:26;;;;;;;15.95;6.97;;;;;;;17.82;100.00;100987.41;4931570;29;20055;-68
2023/07/12 07:21:53;;;;;;;13.50;6.30;;;;;;;17.83;100.00;100988.22;4909534;29;21485;-68
2023/07/12 07:24:19;;;;;;;14.68;6.63;;;;;;;17.89;100.00;100983.00;4926241;29;20391;-68
2023/07/12 07:26:46;;;;;;;12.38;5.90;;;;;;;17.96;100.00;100985.72;4927163;29;20200;-68
2023/07/12 07:29:12;;;;;;;11.65;5.32;;;;;;;18.07;100.00;100989.69;4916706;29;20576;-67
2023/07/12 07:31:39;;;;;;;13.40;6.00;;;;;;;18.10;100.00;100991.97;4930652;29;20051;-68
2023/07/12 07:34:05;;;;;;;11.70;5.30;;;;;;;18.05;100.00;101005.78;4922971;29;20058;-69
2023/07/12 07:36:32;;;;;;;11.77;6.30;;;;;;;18.02;100.00;101006.19;4930339;29;20091;-68
2023/07/12 07:38:59;;;;;;;11.20;6.20;;;;;;;17.97;100.00;101012.06;4930551;29;20115;-67
2023/07/12 07:41:26;;;;;;;11.02;6.13;;;;;;;18.07;100.00;101011.75;4919738;29;20047;-68
2023/07/12 07:43:53;;;;;;;13.43;5.78;;;;;;;18.13;100.00;101026.91;4926205;29;20056;-67
2023/07/12 07:46:21;;;;;;;10.63;5.32;;;;;;;18.06;100.00;101018.06;4924654;29;20055;-68
2023/07/12 07:48:47;;;;;;;11.43;5.05;;;;;;;18.21;100.00;101025.13;4924605;29;20063;-67
2023/07/12 07:51:14;;;;;;;10.50;4.90;;;;;;;18.21;100.00;101025.97;4923207;28;20135;-67
2023/07/12 07:53:41;;;;;;;9.10;5.13;;;;;;;18.19;100.00;101027.97;4929696;29;20048;-68
2023/07/12 07:56:07;;;;;;;11.77;5.13;;;;;;;18.20;100.00;101037.56;4921572;29;20065;-68
2023/07/12 07:58:35;;;;;;;12.93;5.30;;;;;;;18.29;100.00;101033.78;4919387;29;20481;-68
2023/07/12 08:01:01;;;;;;;12.27;4.80;;;;;;;18.34;100.00;101034.00;4930178;29;20257;-67
2023/07/12 08:03:30;;;;;;;11.25;4.90;;;;;;;18.39;100.00;101036.09;4925596;28;20050;-67
2023/07/12 08:06:02;;;;;;;10.43;4.53;;;;;;;18.48;100.00;101031.47;4913336;29;20503;-67
2023/07/12 08:08:29;;;;;;;11.10;4.85;;;;;;;18.58;100.00;101040.75;4920433;29;20051;-68
2023/07/12 08:10:57;;;;;;;14.85;5.38;;;;;;;18.63;100.00;101034.84;4924147;29;20423;-67
2023/07/12 08:13:24;;;;;;;11.82;4.85;;;;;;;18.46;100.00;101030.84;4928771;29;20052;-68
2023/07/12 08:15:54;;;;;;;12.63;5.88;;;;;;;18.31;100.00;101053.00;4922981;29;20074;-67
2023/07/12 08:18:21;;;;;;;13.20;5.47;;;;;;;18.41;100.00;101047.34;4912518;29;20043;-67
2023/07/12 08:20:47;;;;;;;17.67;5.25;;;;;;;18.40;100.00;101058.16;4923148;29;20078;-68
2023/07/12 08:23:14;;;;;;;10.48;5.20;;;;;;;18.43;100.00;101052.47;4925775;29;20079;-67
2023/07/12 08:25:40;;;;;;;15.85;6.35;;;;;;;18.41;100.00;101059.81;4918688;29;20055;-67
2023/07/12 08:28:07;;;;;;;10.30;4.80;;;;;;;18.35;100.00;101064.88;4929782;29;20075;-66
2023/07/12 08:30:35;;;;;;;9.95;5.00;;;;;;;18.44;100.00;101059.41;4926893;29;20043;-66
2023/07/12 08:33:02;;;;;;;11.52;5.43;;;;;;;18.53;100.00;101071.56;4928739;29;20056;-67
2023/07/12 08:35:28;;;;;;;9.88;4.95;;;;;;;18.56;100.00;101061.38;4928928;29;20127;-67
2023/07/12 08:37:58;;;;;;;13.10;5.05;;;;;;;18.66;100.00;101052.22;4919002;28;20079;-68
2023/07/12 08:40:24;;;;;;;13.07;5.35;;;;;;;18.79;100.00;101070.91;4921156;29;20054;-66
2023/07/12 08:42:51;;;;;;;18.20;6.32;;;;;;;19.01;100.00;101078.84;4926554;29;20519;-66
2023/07/12 08:45:28;;;;;;;14.52;5.00;;;;;;;19.09;100.00;101066.22;4932522;29;20134;-66
2023/07/12 08:48:05;;;;;;;13.25;5.90;;;;;;;19.09;100.00;101063.56;4927226;29;20056;-67
2023/07/12 08:50:40;;;;;;;11.45;5.35;;;;;;;19.40;100.00;101062.25;4928528;29;20139;-66
2023/07/12 08:53:20;;;;;;;13.10;5.53;;;;;;;19.68;100.00;101058.66;4928876;29;20044;-66
2023/07/12 08:55:47;;;;;;;11.23;5.28;;;;;;;20.01;100.00;101069.41;4928494;29;20352;-66
2023/07/12 08:58:23;;;;;;;9.60;4.53;;;;;;;20.28;100.00;101062.25;4935779;29;20043;-67
2023/07/12 09:01:27;;;;;;;8.93;4.32;;;;;;;20.56;100.00;101055.88;4923824;29;20076;-66
2023/07/12 09:03:53;;;;;;;11.20;4.60;;;;;;;20.72;100.00;101065.34;4911869;29;20953;-67
2023/07/12 09:06:20;;;;;;;9.13;4.40;;;;;;;20.67;100.00;101059.81;4919339;29;20079;-68
2023/07/12 09:08:50;;;;;;;11.23;4.80;;;;;;;20.79;100.00;101057.34;4930854;29;20051;-66
2023/07/12 09:11:20;;;;;;;12.40;3.80;;;;;;;20.65;100.00;101060.03;4924981;29;20076;-68
2023/07/12 09:13:47;;;;;;;10.65;3.83;;;;;;;20.52;100.00;101065.31;4931347;29;20489;-68
2023/07/12 09:16:23;;;;;;;11.52;3.80;;;;;;;20.64;100.00;101060.22;4927428;29;20042;-67
2023/07/12 09:18:54;;;;;;;12.75;4.85;;;;;;;20.47;100.00;101055.28;4926542;29;20465;-67
2023/07/12 09:21:35;;;;;;;12.00;4.88;;;;;;;20.48;100.00;101064.09;4926976;29;20157;-68
2023/07/12 09:24:11;;;;;;;11.50;4.32;;;;;;;20.69;100.00;101055.91;4925432;29;20103;-66
2023/07/12 09:26:37;;;;;;;12.35;3.95;;;;;;;20.97;96.78;101060.16;4932463;29;20043;-67
2023/07/12 09:29:13;;;;;;;11.55;3.53;;;;;;;21.23;99.08;101050.41;4907602;29;20051;-66
2023/07/12 09:31:41;;;;;;;11.15;3.83;;;;;;;21.05;95.11;101056.44;4931782;29;20126;-67
2023/07/12 09:34:17;;;;;;;10.63;3.80;;;;;;;20.99;95.99;101062.63;4920312;28;20099;-66
2023/07/12 09:36:43;;;;;;;8.85;3.22;;;;;;;21.05;92.16;101053.78;4926587;29;20044;-66
2023/07/12 09:39:11;;;;;;;11.98;3.63;;;;;;;21.49;95.26;101050.34;4926616;29;20093;-67
2023/07/12 09:41:50;;;;;;;12.93;3.70;;;;;;;21.52;94.51;101046.41;4932180;29;20103;-66
2023/07/12 09:44:17;;;;;;;9.65;3.50;;;;;;;21.52;93.05;101049.09;4931761;29;20290;-66
2023/07/12 09:46:57;;;;;;;9.93;3.60;;;;;;;21.83;86.87;101053.63;4919060;29;20139;-66
2023/07/12 09:49:49;;;;;;;10.43;3.13;;;;;;;21.98;90.35;101056.00;4928016;29;20048;-68
2023/07/12 09:52:25;;;;;;;10.77;3.58;;;;;;;21.99;85.26;101051.47;4906786;29;20060;-66
2023/07/12 09:55:03;;;;;;;11.38;3.53;;;;;;;22.21;86.61;101066.13;4930909;29;20243;-67
2023/07/12 09:57:53;;;;;;;9.70;3.17;;;;;;;22.40;86.17;101056.31;4924691;29;20043;-67
2023/07/12 10:00:40;;;;;;;9.18;3.17;;;;;;;22.24;82.24;101056.84;4921205;29;20095;-66
2023/07/12 10:03:18;;;;;;;10.65;3.20;;;;;;;22.46;80.02;101060.81;4920922;29;20047;-67
2023/07/12 10:05:54;;;;;;;8.32;2.78;;;;;;;22.59;79.42;101062.53;4931776;29;20107;-68
2023/07/12 10:08:23;;;;;;;8.05;3.10;;;;;;;22.64;79.91;101062.69;4924644;29;20547;-67
2023/07/12 10:10:50;;;;;;;9.65;3.45;;;;;;;22.37;75.94;101063.97;4931533;29;20150;-67
2023/07/12 10:13:41;;;;;;;10.37;3.57;;;;;;;22.37;76.63;101056.78;4923296;29;20047;-66
2023/07/12 10:16:15;;;;;;;10.15;3.08;;;;;;;;;;4928362;29;20516;-68
2023/07/12 10:18:44;;;;;;;13.55;3.58;;;;;;;22.59;75.85;101075.09;4930294;29;20050;-68
2023/07/12 10:21:18;;;;;;;6.75;2.95;;;;;;;22.84;74.64;101057.13;4925733;29;20481;-67
2023/07/12 10:24:01;;;;;;;9.15;3.17;;;;;;;22.85;73.96;101065.97;4929978;29;20106;-66
2023/07/12 10:26:27;;;;;;;7.82;2.88;;;;;;;22.62;74.21;101072.78;4921087;28;20075;-67
2023/07/12 10:29:19;;;;;;;8.80;3.22;;;;;;;22.53;77.02;101067.94;4924455;29;20058;-68
2023/07/12 10:31:57;;;;;;;8.45;2.97;;;;;;;22.63;73.67;101066.38;4925447;29;20087;-67
2023/07/12 10:34:28;;;;;;;11.73;2.90;;;;;;;22.85;75.08;101074.81;4930929;29;20039;-68
2023/07/12 10:37:03;;;;;;;10.75;2.67;;;;;;;22.81;73.39;101075.47;4923357;29;20087;-67
2023/07/12 10:39:29;;;;;;;9.98;2.72;;;;;;;22.81;74.74;101065.59;4904439;29;20047;-67
2023/07/12 10:42:11;;;;;;;9.88;3.00;;;;;;;22.39;74.07;101081.41;4917882;29;20052;-67
2023/07/12 10:44:46;;;;;;;10.52;3.33;;;;;;;22.34;74.43;101062.53;4928725;29;20126;-66
2023/07/12 10:47:16;;;;;;;9.68;3.17;;;;;;;22.25;72.93;101075.38;4913145;29;20576;-66
2023/07/12 10:50:00;;;;;;;10.45;2.95;;;;;;;22.21;76.76;101081.31;4925093;29;20428;-66
2023/07/12 10:52:33;;;;;;;7.53;2.90;;;;;;;22.24;76.97;101083.56;4929426;29;20083;-65
2023/07/12 10:55:03;;;;;;;11.38;3.50;;;;;;;22.00;77.22;101093.19;4915276;29;20044;-66
2023/07/12 10:57:38;;;;;;;8.43;3.17;;;;;;;21.85;88.10;101102.28;4925301;29;20491;-67
2023/07/12 11:00:26;;;;;;;10.50;3.30;;;;;;;21.49;98.09;101102.91;4921728;29;20040;-69
2023/07/12 11:03:00;;;;;;;10.55;3.40;;;;;;;21.21;100.00;101098.66;4922933;29;20138;-68
2023/07/12 11:05:54;;;;;;;9.52;3.38;;;;;;;21.04;100.00;101095.63;4923485;29;20432;-70
2023/07/12 11:08:30;;;;;;;9.85;2.85;;;;;;;21.05;100.00;101099.94;4925714;29;20485;-72
2023/07/12 11:11:01;;;;;;;8.68;3.00;;;;;;;21.04;100.00;101100.97;4916618;29;20056;-71
2023/07/12 11:13:42;;;;;;;11.60;2.97;;;;;;;21.26;100.00;101098.84;4928547;29;20066;-68
2023/07/12 11:16:17;;;;;;;6.95;2.55;;;;;;;21.46;100.00;101103.31;4923384;28;20047;-67
2023/07/12 11:18:49;;;;;;;9.00;3.13;;;;;;;21.78;100.00;101100.69;4929165;29;20058;-65
2023/07/12 11:21:27;;;;;;;10.07;3.22;;;;;;;21.72;100.00;101105.06;4925535;29;20059;-68
2023/07/12 11:23:54;;;;;;;9.88;3.30;;;;;;;21.76;100.00;101108.94;4926150;29;20055;-65